createdAt,value
2018-09-03T00:00:46.945Z,84.83
2018-09-03T00:01:47.880Z,84.73
2018-09-03T00:02:46.784Z,84.92
2018-09-03T00:03:46.716Z,85.21
2018-09-03T00:04:46.647Z,85.60
2018-09-03T00:05:46.708Z,85.55
2018-09-03T00:06:46.492Z,85.75
2018-09-03T00:07:46.390Z,86.04
2018-09-03T00:08:46.412Z,85.75
2018-09-03T00:11:28.234Z,86.13
2018-09-03T00:14:10.220Z,86.80
2018-09-03T00:15:10.138Z,87.29
2018-09-03T00:16:10.059Z,87.29
2018-09-03T00:17:10.003Z,87.09
2018-09-03T00:18:09.897Z,87.48
2018-09-03T00:19:09.825Z,87.57
2018-09-03T00:20:09.738Z,88.15
2018-09-03T00:21:09.668Z,88.30
2018-09-03T00:22:09.593Z,88.63
2018-09-03T00:23:09.499Z,88.78
2018-09-03T00:24:09.421Z,88.97
2018-09-03T00:25:09.357Z,88.87
2018-09-03T00:26:09.280Z,89.36
2018-09-03T00:27:09.216Z,88.97
2018-09-03T00:28:09.107Z,89.26
2018-09-03T00:29:09.046Z,89.16
2018-09-03T00:30:08.942Z,89.16
2018-09-03T00:31:08.872Z,89.45
2018-09-03T00:32:08.808Z,89.54
2018-09-03T00:33:08.786Z,90.22
2018-09-03T00:34:08.635Z,89.83
2018-09-03T00:35:08.558Z,90.80
2018-09-03T00:36:08.480Z,90.99
2018-09-03T00:37:08.394Z,91.04
2018-09-03T00:38:08.328Z,90.75
2018-09-03T00:39:08.264Z,91.47
2018-09-03T00:40:08.167Z,91.33
2018-09-03T00:41:08.082Z,91.81
2018-09-03T00:42:07.999Z,91.81
2018-09-03T00:43:07.959Z,91.90
2018-09-03T00:44:07.835Z,91.81
2018-09-03T00:45:07.767Z,92.57
2018-09-03T00:46:07.680Z,92.29
2018-09-03T00:47:07.608Z,92.57
2018-09-03T00:48:07.538Z,92.57
2018-09-03T00:49:07.458Z,93.15
2018-09-03T00:50:07.360Z,92.38
2018-09-03T00:51:07.299Z,92.57
2018-09-03T00:52:07.218Z,92.77
2018-09-03T00:53:07.163Z,93.05
2018-09-03T00:54:07.059Z,93.05
2018-09-03T00:55:06.985Z,93.44
2018-09-03T00:56:06.890Z,93.73
2018-09-03T00:57:06.824Z,93.73
2018-09-03T00:58:06.738Z,93.44
2018-09-03T00:59:06.678Z,93.15
2018-09-03T01:00:06.581Z,93.54
2018-09-03T01:02:48.776Z,93.44
2018-09-03T01:03:48.683Z,93.73
2018-09-03T01:04:48.562Z,93.82
2018-09-03T01:07:30.739Z,94.21
2018-09-03T01:08:30.660Z,94.49
2018-09-03T01:09:30.599Z,94.69
2018-09-03T01:10:30.499Z,94.69
2018-09-03T01:11:30.410Z,95.21
2018-09-03T01:12:30.336Z,95.70
2018-09-03T01:13:30.272Z,95.79
2018-09-03T01:14:30.186Z,95.98
2018-09-03T01:15:30.093Z,95.79
2018-09-03T01:16:30.022Z,95.98
2018-09-03T01:17:29.947Z,96.75
2018-09-03T01:18:29.860Z,97.33
2018-09-03T01:19:29.798Z,97.24
2018-09-03T01:22:11.738Z,98.48
2018-09-03T01:23:11.655Z,98.38
2018-09-03T01:24:11.594Z,97.81
2018-09-03T01:25:11.615Z,96.94
2018-09-03T01:26:11.423Z,97.81
2018-09-03T01:27:11.343Z,97.52
2018-09-03T01:28:11.304Z,98.10
2018-09-03T01:29:11.180Z,96.94
2018-09-03T01:30:11.116Z,97.04
2018-09-03T01:31:11.025Z,97.28
2018-09-03T01:32:10.938Z,97.09
2018-09-03T01:33:10.863Z,96.51
2018-09-03T01:34:10.789Z,96.42
2018-09-03T01:35:10.723Z,96.03
2018-09-03T01:37:35.235Z,95.55
2018-09-03T01:38:35.160Z,95.36
2018-09-03T01:39:35.078Z,94.78
2018-09-03T01:40:36.027Z,95.21
2018-09-03T01:41:34.925Z,95.17
2018-09-03T01:44:16.743Z,94.49
2018-09-03T01:45:16.697Z,94.59
2018-09-03T01:46:16.601Z,94.69
2018-09-03T01:47:16.513Z,94.31
2018-09-03T01:48:16.421Z,94.31
2018-09-03T01:49:16.354Z,94.49
2018-09-03T01:50:16.265Z,94.69
2018-09-03T01:51:16.246Z,95.26
2018-09-03T01:52:16.103Z,94.93
2018-09-03T01:54:58.238Z,95.55
2018-09-03T01:57:40.262Z,95.17
2018-09-03T02:01:46.767Z,95.36
2018-09-03T02:02:46.666Z,95.70
2018-09-03T02:03:46.584Z,95.45
2018-09-03T02:04:46.510Z,95.50
2018-09-03T02:05:46.431Z,95.31
2018-09-03T02:06:46.369Z,94.93
2018-09-03T02:07:46.269Z,94.35
2018-09-03T02:10:28.254Z,94.45
2018-09-03T02:11:28.199Z,93.77
2018-09-03T02:12:28.088Z,94.83
2018-09-03T02:15:10.253Z,94.35
2018-09-03T02:16:10.172Z,94.54
2018-09-03T02:17:10.117Z,94.26
2018-09-03T02:18:10.020Z,94.45
2018-09-03T02:19:09.931Z,94.45
2018-09-03T02:21:51.776Z,94.64
2018-09-03T02:22:51.689Z,94.16
2018-09-03T02:23:51.593Z,93.96
2018-09-03T02:24:51.522Z,94.06
2018-09-03T02:25:51.433Z,93.58
2018-09-03T02:26:52.379Z,94.06
2018-09-03T02:27:51.297Z,94.26
2018-09-03T02:28:51.202Z,94.64
2018-09-03T02:29:51.114Z,94.45
2018-09-03T02:30:51.061Z,94.54
2018-09-03T02:31:50.964Z,94.45
2018-09-03T02:32:50.908Z,94.73
2018-09-03T02:33:50.809Z,94.26
2018-09-03T02:34:50.730Z,94.54
2018-09-03T02:35:50.641Z,95.50
2018-09-03T02:36:50.567Z,96.17
2018-09-03T02:37:50.501Z,95.12
2018-09-03T02:38:50.406Z,95.70
2018-09-03T02:39:50.340Z,95.70
2018-09-03T02:40:50.248Z,95.70
2018-09-03T02:41:50.164Z,96.08
2018-09-03T02:42:50.110Z,95.89
2018-09-03T02:43:50.031Z,95.12
2018-09-03T02:44:49.929Z,95.60
2018-09-03T02:45:49.845Z,95.17
2018-09-03T02:46:49.772Z,95.31
2018-09-03T02:47:49.698Z,94.88
2018-09-03T02:48:49.641Z,95.12
2018-09-03T02:49:49.535Z,95.31
2018-09-03T02:50:49.460Z,95.12
2018-09-03T02:51:49.397Z,95.26
2018-09-03T02:52:49.327Z,94.98
2018-09-03T02:53:49.235Z,95.26
2018-09-03T02:54:49.200Z,95.50
2018-09-03T02:55:49.054Z,95.50
2018-09-03T02:56:48.987Z,95.21
2018-09-03T02:57:49.028Z,95.60
2018-09-03T02:58:48.845Z,95.31
2018-09-03T02:59:48.739Z,95.12
2018-09-03T03:00:48.662Z,95.40
2018-09-03T03:01:48.580Z,95.31
2018-09-03T03:04:30.782Z,94.26
2018-09-03T03:05:30.683Z,94.93
2018-09-03T03:06:30.611Z,94.64
2018-09-03T03:07:30.532Z,95.12
2018-09-03T03:08:30.446Z,94.45
2018-09-03T03:09:30.406Z,95.31
2018-09-03T03:10:30.310Z,95.21
2018-09-03T03:11:30.213Z,95.31
2018-09-03T03:12:30.145Z,94.26
2018-09-03T03:13:30.059Z,94.35
2018-09-03T03:14:29.965Z,95.40
2018-09-03T03:15:29.916Z,95.50
2018-09-03T03:16:29.842Z,96.08
2018-09-03T03:17:29.742Z,96.27
2018-09-03T03:18:29.668Z,95.60
2018-09-03T03:19:29.579Z,96.08
2018-09-03T03:20:29.635Z,95.89
2018-09-03T03:21:29.438Z,95.89
2018-09-03T03:22:29.345Z,95.89
2018-09-03T03:25:11.291Z,97.24
2018-09-03T03:27:53.279Z,95.89
2018-09-03T03:30:35.284Z,95.89
2018-09-03T03:31:35.197Z,95.70
2018-09-03T03:32:35.126Z,96.17
2018-09-03T03:33:35.042Z,96.56
2018-09-03T03:34:34.973Z,97.14
2018-09-03T03:35:34.901Z,96.17
2018-09-03T03:37:59.273Z,97.42
2018-09-03T03:38:59.201Z,97.42
2018-09-03T03:39:59.119Z,97.42
2018-09-03T03:42:36.279Z,97.33
2018-09-03T03:43:36.197Z,96.47
2018-09-03T03:44:36.116Z,96.37
2018-09-03T03:45:36.051Z,97.33
2018-09-03T03:46:35.962Z,96.94
2018-09-03T03:47:35.888Z,97.33
2018-09-03T03:50:17.793Z,97.04
2018-09-03T03:51:17.751Z,97.33
2018-09-03T03:52:17.616Z,97.33
2018-09-03T03:53:17.542Z,97.14
2018-09-03T03:54:17.471Z,96.99
2018-09-03T03:56:59.293Z,97.42
2018-09-03T03:59:41.284Z,96.94
2018-09-03T04:00:41.218Z,96.75
2018-09-03T04:01:41.141Z,96.94
2018-09-03T04:02:41.073Z,98.00
2018-09-03T04:03:40.979Z,97.24
2018-09-03T04:04:40.884Z,96.47
2018-09-03T04:05:40.803Z,95.89
2018-09-03T04:06:40.746Z,96.17
2018-09-03T04:07:40.653Z,96.75
2018-09-03T04:08:40.581Z,96.47
2018-09-03T04:09:40.482Z,97.14
2018-09-03T04:10:40.421Z,96.47
2018-09-03T04:13:04.865Z,96.66
2018-09-03T04:14:04.708Z,96.56
2018-09-03T04:15:04.618Z,96.94
2018-09-03T04:16:04.553Z,97.04
2018-09-03T04:17:04.484Z,97.14
2018-09-03T04:18:04.391Z,96.37
2018-09-03T04:19:04.363Z,97.33
2018-09-03T04:20:04.245Z,97.14
2018-09-03T04:21:04.158Z,97.04
2018-09-03T04:22:04.096Z,97.62
2018-09-03T04:23:04.096Z,97.14
2018-09-03T04:24:03.917Z,97.04
2018-09-03T04:25:03.832Z,97.04
2018-09-03T04:27:45.817Z,95.89
2018-09-03T04:30:27.791Z,96.08
2018-09-03T04:31:27.710Z,96.56
2018-09-03T04:32:27.651Z,95.89
2018-09-03T04:33:27.593Z,96.66
2018-09-03T04:34:27.477Z,96.56
2018-09-03T04:37:09.288Z,95.31
2018-09-03T04:38:09.233Z,94.93
2018-09-03T04:39:09.137Z,94.83
2018-09-03T04:40:09.063Z,94.73
2018-09-03T04:41:08.971Z,94.83
2018-09-03T04:43:50.823Z,97.33
2018-09-03T04:46:32.797Z,98.58
2018-09-03T04:47:32.721Z,98.19
2018-09-03T04:48:32.691Z,98.29
2018-09-03T04:49:32.562Z,98.29
2018-09-03T04:50:32.479Z,98.29
2018-09-03T04:51:32.413Z,98.58
2018-09-03T04:52:32.319Z,97.71
2018-09-03T04:53:32.260Z,97.91
2018-09-03T04:54:32.372Z,97.33
2018-09-03T04:58:49.543Z,97.24
2018-09-03T04:59:50.461Z,97.33
2018-09-03T05:00:49.367Z,96.37
2018-09-03T05:01:49.282Z,96.56
2018-09-03T05:02:49.196Z,96.75
2018-09-03T05:03:49.146Z,96.85
2018-09-03T05:04:49.058Z,96.17
2018-09-03T05:07:31.323Z,96.17
2018-09-03T05:08:31.231Z,96.51
2018-09-03T05:09:31.186Z,95.84
2018-09-03T05:12:13.313Z,94.68
2018-09-03T05:13:13.245Z,94.49
2018-09-03T05:14:13.153Z,94.40
2018-09-03T05:15:13.105Z,94.59
2018-09-03T05:16:12.994Z,94.64
2018-09-03T05:17:12.916Z,94.73
2018-09-03T05:18:12.843Z,94.45
2018-09-03T05:19:12.780Z,94.35
2018-09-03T05:20:12.700Z,94.45
2018-09-03T05:22:54.815Z,94.45
2018-09-03T05:23:54.732Z,94.64
2018-09-03T05:24:54.682Z,94.49
2018-09-03T05:25:54.761Z,94.78
2018-09-03T05:26:54.493Z,94.40
2018-09-03T05:27:54.498Z,94.59
2018-09-03T05:28:54.365Z,94.30
2018-09-03T05:29:55.362Z,94.21
2018-09-03T05:30:54.205Z,94.11
2018-09-03T05:31:54.222Z,94.01
2018-09-03T05:32:54.030Z,94.01
2018-09-03T05:33:54.031Z,94.78
2018-09-03T05:34:53.848Z,95.36
2018-09-03T05:35:54.080Z,95.17
2018-09-03T05:36:53.718Z,93.24
2018-09-03T05:37:54.256Z,93.05
2018-09-03T05:38:53.555Z,93.29
2018-09-03T05:41:35.837Z,92.67
2018-09-03T05:42:35.857Z,93.34
2018-09-03T05:43:35.804Z,92.29
2018-09-03T05:44:35.667Z,93.82
2018-09-03T05:45:35.492Z,93.10
2018-09-03T05:46:35.502Z,92.57
2018-09-03T05:47:35.341Z,93.24
2018-09-03T05:48:35.294Z,93.05
2018-09-03T05:49:35.186Z,92.76
2018-09-03T05:50:35.264Z,92.19
2018-09-03T05:51:35.043Z,92.43
2018-09-03T05:52:34.999Z,92.52
2018-09-03T05:53:34.866Z,92.43
2018-09-03T05:54:34.812Z,94.06
2018-09-03T05:55:34.722Z,93.38
2018-09-03T05:56:34.767Z,92.47
2018-09-03T05:57:34.545Z,93.19
2018-09-03T05:58:34.478Z,92.52
2018-09-03T05:59:34.391Z,91.85
2018-09-03T06:00:34.314Z,91.66
2018-09-03T06:01:34.255Z,91.46
2018-09-03T06:02:34.156Z,91.75
2018-09-03T06:03:34.092Z,92.04
2018-09-03T06:06:16.364Z,90.89
2018-09-03T06:07:16.279Z,90.59
2018-09-03T06:08:16.168Z,91.27
2018-09-03T06:09:16.090Z,90.98
2018-09-03T06:10:16.000Z,91.08
2018-09-03T06:11:16.013Z,91.08
2018-09-03T06:12:15.873Z,90.79
2018-09-03T06:13:15.775Z,90.89
2018-09-03T06:14:15.699Z,90.59
2018-09-03T06:15:15.615Z,90.83
2018-09-03T06:16:15.541Z,90.16
2018-09-03T06:17:15.478Z,89.97
2018-09-03T06:18:15.380Z,89.92
2018-09-03T06:19:15.346Z,90.26
2018-09-03T06:20:15.218Z,90.16
2018-09-03T06:21:15.158Z,91.03
2018-09-03T06:22:15.073Z,90.35
2018-09-03T06:23:15.012Z,91.13
2018-09-03T06:24:15.009Z,90.35
2018-09-03T06:26:56.829Z,90.21
2018-09-03T06:27:57.843Z,90.06
2018-09-03T06:28:56.668Z,90.41
2018-09-03T06:29:56.623Z,90.21
2018-09-03T06:30:56.519Z,90.02
2018-09-03T06:31:56.440Z,90.50
2018-09-03T06:32:56.390Z,90.31
2018-09-03T06:33:57.308Z,91.17
2018-09-03T06:34:56.217Z,90.31
2018-09-03T06:37:38.347Z,90.98
2018-09-03T06:40:20.385Z,90.69
2018-09-03T06:41:20.283Z,90.89
2018-09-03T06:42:20.188Z,90.31
2018-09-03T06:43:21.116Z,91.08
2018-09-03T06:44:20.021Z,91.08
2018-09-03T06:45:19.967Z,91.17
2018-09-03T06:46:19.882Z,91.08
2018-09-03T06:47:19.814Z,91.08
2018-09-03T06:48:19.802Z,90.89
2018-09-03T06:49:21.636Z,91.08
2018-09-03T06:50:19.546Z,91.66
2018-09-03T06:51:19.470Z,91.27
2018-09-03T06:52:19.396Z,91.08
2018-09-03T06:53:19.354Z,90.31
2018-09-03T06:54:19.247Z,90.21
2018-09-03T06:55:19.162Z,90.02
2018-09-03T06:56:19.097Z,90.31
2018-09-03T07:08:42.175Z,87.90
2018-09-03T07:09:42.082Z,88.24
2018-09-03T07:10:42.026Z,87.85
2018-09-03T07:11:41.923Z,88.33
2018-09-03T07:12:41.949Z,88.14
2018-09-03T07:13:41.754Z,87.95
2018-09-03T07:14:41.688Z,88.33
2018-09-03T07:15:41.761Z,88.53
2018-09-03T07:16:41.563Z,88.43
2018-09-03T07:17:41.437Z,88.24
2018-09-03T07:18:41.376Z,89.35
2018-09-03T07:19:41.313Z,88.81
2018-09-03T07:20:41.262Z,88.67
2018-09-03T07:21:41.125Z,88.57
2018-09-03T07:22:41.063Z,88.67
2018-09-03T07:23:40.992Z,89.54
2018-09-03T07:24:40.902Z,88.96
2018-09-03T07:25:40.810Z,89.44
2018-09-03T07:26:41.764Z,89.64
2018-09-03T07:27:40.652Z,90.31
2018-09-03T07:28:40.588Z,89.92
2018-09-03T07:29:40.521Z,89.44
2018-09-03T07:32:22.879Z,89.29
2018-09-03T07:33:22.771Z,88.81
2018-09-03T07:34:22.685Z,88.24
2018-09-03T07:37:04.890Z,88.18
2018-09-03T07:38:04.845Z,88.09
2018-09-03T07:39:04.692Z,87.99
2018-09-03T07:41:46.892Z,88.28
2018-09-03T07:44:28.869Z,89.10
2018-09-03T07:45:28.867Z,89.01
2018-09-03T07:46:28.726Z,89.10
2018-09-03T07:47:28.756Z,90.16
2018-09-03T07:48:28.554Z,90.35
2018-09-03T07:49:28.477Z,90.35
2018-09-03T07:50:28.427Z,90.16
2018-09-03T07:51:28.326Z,90.16
2018-09-03T07:52:28.264Z,90.26
2018-09-03T07:55:10.401Z,90.50
2018-09-03T07:57:52.383Z,90.69
2018-09-03T07:58:52.282Z,91.36
2018-09-03T07:59:52.195Z,91.27
2018-09-03T08:00:52.150Z,90.69
2018-09-03T08:01:52.041Z,91.94
2018-09-03T08:02:52.987Z,91.85
2018-09-03T08:03:51.914Z,92.61
2018-09-03T08:04:51.840Z,93.10
2018-09-03T08:05:51.729Z,94.25
2018-09-03T08:06:51.721Z,95.31
2018-09-03T08:07:51.614Z,96.94
2018-09-03T08:08:51.494Z,96.42
2018-09-03T08:09:51.555Z,96.32
2018-09-03T08:12:33.369Z,98.44
2018-09-03T08:13:33.322Z,98.82
2018-09-03T08:14:33.208Z,99.30
2018-09-03T08:15:33.142Z,99.99
2018-09-03T08:16:33.040Z,98.24
2018-09-03T08:19:14.905Z,99.73
2018-09-03T08:21:56.877Z,99.78
2018-09-03T08:22:56.788Z,99.99
2018-09-03T08:23:56.772Z,99.99
2018-09-03T08:24:56.631Z,99.99
2018-09-03T08:25:56.542Z,99.99
2018-09-03T08:26:56.474Z,99.99
2018-09-03T08:27:56.389Z,99.99
2018-09-03T08:28:56.388Z,99.99
2018-09-03T08:29:56.278Z,99.99
2018-09-03T08:30:56.162Z,99.99
2018-09-03T08:34:03.908Z,99.99
2018-09-03T08:35:03.794Z,99.99
2018-09-03T08:36:03.712Z,99.99
2018-09-03T08:37:03.647Z,99.99
2018-09-03T08:38:03.547Z,99.99
2018-09-03T08:39:03.503Z,99.99
2018-09-03T08:40:03.605Z,99.99
2018-09-03T08:41:03.322Z,99.99
2018-09-03T08:42:03.279Z,99.99
2018-09-03T08:44:45.448Z,99.99
2018-09-03T08:45:45.291Z,99.99
2018-09-03T08:46:45.209Z,99.99
2018-09-03T08:47:45.133Z,99.98
2018-09-03T08:48:45.068Z,99.99
2018-09-03T08:49:44.992Z,99.98
2018-09-03T08:50:44.895Z,99.99
2018-09-03T08:51:44.839Z,99.99
2018-09-03T08:52:44.745Z,99.99
2018-09-03T08:53:44.674Z,99.99
2018-09-03T08:54:44.603Z,99.99
2018-09-03T08:55:44.525Z,99.99
2018-09-03T08:56:44.472Z,99.99
2018-09-03T08:57:44.369Z,99.99
2018-09-03T08:58:44.258Z,99.99
2018-09-03T08:59:44.205Z,99.99
2018-09-03T09:00:44.125Z,99.99
2018-09-03T09:03:26.375Z,99.99
2018-09-03T09:06:08.406Z,99.99
2018-09-03T09:07:08.313Z,99.99
2018-09-03T09:08:08.211Z,99.99
2018-09-03T09:31:47.927Z,99.99
2018-09-03T09:32:47.807Z,99.99
2018-09-03T09:33:47.723Z,99.99
2018-09-03T09:34:47.705Z,99.99
2018-09-03T09:35:47.630Z,99.99
2018-09-03T09:36:47.550Z,99.99
2018-09-03T09:37:47.432Z,99.99
2018-09-03T09:40:29.398Z,99.99
2018-09-03T09:41:29.348Z,99.99
2018-09-03T09:42:29.252Z,99.99
2018-09-03T09:45:11.389Z,99.99
2018-09-03T09:47:53.426Z,99.99
2018-09-03T09:48:53.328Z,99.99
2018-09-03T09:49:53.234Z,99.99
2018-09-03T09:50:53.170Z,99.99
2018-09-03T09:51:53.111Z,99.99
2018-09-03T09:52:52.995Z,99.99
2018-09-03T09:53:52.931Z,99.99
2018-09-03T09:54:52.866Z,99.99
2018-09-03T09:55:52.761Z,99.64
2018-09-03T09:56:52.712Z,98.77
2018-09-03T09:57:52.635Z,98.87
2018-09-03T09:58:52.532Z,98.49
2018-09-03T09:59:52.448Z,99.26
2018-09-03T10:02:34.431Z,95.84
2018-09-03T10:03:34.339Z,94.68
2018-09-03T10:04:34.303Z,94.59
2018-09-03T10:05:34.182Z,95.59
2018-09-03T10:06:34.089Z,94.34
2018-09-03T10:07:34.062Z,93.66
2018-09-03T10:08:33.933Z,93.19
2018-09-03T10:09:33.879Z,94.20
2018-09-03T10:10:33.767Z,91.88
2018-09-03T10:13:15.937Z,92.08
2018-09-03T10:15:57.912Z,91.35
2018-09-03T10:16:57.839Z,90.58
2018-09-03T10:17:57.774Z,88.45
2018-09-03T10:18:57.694Z,89.13
2018-09-03T10:19:57.604Z,88.84
2018-09-03T10:22:39.946Z,88.99
2018-09-03T10:25:21.911Z,91.30
2018-09-03T10:26:21.865Z,91.40
2018-09-03T10:27:21.744Z,91.30
2018-09-03T10:28:21.698Z,90.58
2018-09-03T10:29:21.584Z,90.29
2018-09-03T10:30:21.516Z,89.90
2018-09-03T10:31:21.439Z,90.09
2018-09-03T10:32:21.370Z,90.82
2018-09-03T10:33:21.396Z,91.50
2018-09-03T10:34:21.279Z,91.30
2018-09-03T10:35:21.169Z,91.30
2018-09-03T10:38:03.486Z,93.43
2018-09-03T10:39:03.372Z,91.88
2018-09-03T10:40:03.257Z,91.20
2018-09-03T10:41:03.202Z,91.11
2018-09-03T10:42:03.104Z,91.16
2018-09-03T10:44:45.571Z,90.24
2018-09-03T10:45:45.389Z,91.11
2018-09-03T10:46:45.251Z,91.11
2018-09-03T10:47:45.252Z,90.92
2018-09-03T10:48:45.112Z,91.40
2018-09-03T10:49:45.066Z,91.69
2018-09-03T10:50:44.960Z,91.35
2018-09-03T10:53:26.925Z,90.67
2018-09-03T10:54:26.861Z,89.71
2018-09-03T10:55:26.786Z,90.34
2018-09-03T10:58:08.923Z,91.20
2018-09-03T10:59:08.866Z,90.29
2018-09-03T11:00:08.788Z,91.44
2018-09-03T11:01:08.714Z,90.33
2018-09-03T11:02:08.612Z,89.17
2018-09-03T11:03:08.547Z,87.87
2018-09-03T11:04:08.483Z,88.11
2018-09-03T11:05:08.443Z,89.17
2018-09-03T11:06:08.314Z,88.98
2018-09-03T11:07:08.229Z,87.92
2018-09-03T11:08:08.145Z,87.00
2018-09-03T11:09:08.081Z,86.08
2018-09-03T11:10:08.009Z,87.58
2018-09-03T11:11:07.974Z,86.90
2018-09-03T11:21:48.627Z,90.33
2018-09-03T11:22:48.516Z,89.37
2018-09-03T11:23:48.439Z,88.98
2018-09-03T11:24:48.369Z,88.50
2018-09-03T11:27:30.469Z,87.92
2018-09-03T11:28:30.368Z,87.87
2018-09-03T11:29:30.272Z,89.12
2018-09-03T11:30:30.215Z,88.73
2018-09-03T11:31:30.152Z,88.06
2018-09-03T11:32:30.061Z,88.25
2018-09-03T11:33:29.988Z,87.91
2018-09-03T11:34:29.926Z,86.80
2018-09-03T11:35:29.821Z,85.84
2018-09-03T11:36:29.738Z,85.84
2018-09-03T11:37:29.679Z,85.30
2018-09-03T11:38:29.594Z,85.21
2018-09-03T11:39:29.511Z,84.91
2018-09-03T11:40:29.457Z,84.63
2018-09-03T11:41:29.367Z,84.78
2018-09-03T11:42:29.359Z,85.84
2018-09-03T11:43:29.202Z,86.22
2018-09-03T11:44:29.127Z,86.13
2018-09-03T11:45:29.054Z,86.13
2018-09-03T11:46:29.001Z,85.84
2018-09-03T11:47:28.919Z,86.03
2018-09-03T11:50:10.933Z,85.49
2018-09-03T11:51:10.890Z,85.30
2018-09-03T11:52:10.790Z,83.95
2018-09-03T11:53:10.742Z,84.88
2018-09-03T11:54:10.631Z,85.30
2018-09-03T11:55:10.567Z,84.53
2018-09-03T11:56:10.515Z,85.06
2018-09-03T11:57:10.410Z,85.94
2018-09-03T11:58:10.360Z,86.32
2018-09-03T11:59:10.299Z,86.80
2018-09-03T12:00:10.181Z,85.94
2018-09-03T12:01:10.131Z,85.41
2018-09-03T12:02:10.087Z,85.64
2018-09-03T12:03:09.963Z,85.26
2018-09-03T12:04:09.915Z,85.16
2018-09-03T12:05:09.795Z,85.16
2018-09-03T12:06:09.705Z,85.36
2018-09-03T12:07:09.705Z,85.45
2018-09-03T12:08:09.578Z,84.88
2018-09-03T12:10:51.439Z,84.72
2018-09-03T12:11:52.524Z,84.53
2018-09-03T12:12:51.295Z,84.63
2018-09-03T12:13:51.261Z,83.70
2018-09-03T12:14:51.138Z,83.22
2018-09-03T12:15:51.080Z,82.64
2018-09-03T12:16:51.016Z,82.20
2018-09-03T12:17:50.935Z,81.13
2018-09-03T12:18:50.863Z,81.32
2018-09-03T12:19:50.816Z,81.95
2018-09-03T12:20:50.714Z,80.98
2018-09-03T12:21:50.604Z,80.79
2018-09-03T12:22:50.552Z,80.05
2018-09-03T12:23:50.493Z,80.30
2018-09-03T12:24:50.401Z,80.49
2018-09-03T12:27:32.497Z,82.25
2018-09-03T12:28:32.380Z,83.22
2018-09-03T12:29:32.366Z,83.41
2018-09-03T12:30:32.226Z,84.57
2018-09-03T12:31:32.153Z,83.51
2018-09-03T12:32:32.080Z,83.03
2018-09-03T12:33:32.011Z,83.41
2018-09-03T12:34:32.980Z,83.41
2018-09-03T12:35:31.854Z,83.12
2018-09-03T12:36:31.840Z,82.93
2018-09-03T12:37:31.680Z,82.73
2018-09-03T12:38:31.619Z,82.87
2018-09-03T12:39:31.561Z,82.39
2018-09-03T12:40:31.483Z,82.97
2018-09-03T12:55:54.436Z,84.33
2018-09-03T12:56:54.348Z,83.99
2018-09-03T12:57:54.280Z,83.70
2018-09-03T12:58:54.203Z,83.16
2018-09-03T13:01:36.490Z,81.56
2018-09-03T13:02:39.418Z,81.27
2018-09-03T13:03:36.311Z,81.81
2018-09-03T13:04:36.276Z,82.10
2018-09-03T13:05:36.180Z,83.22
2018-09-03T13:06:36.087Z,83.51
2018-09-03T13:07:36.012Z,83.61
2018-09-03T13:08:35.945Z,84.19
2018-09-03T13:09:35.880Z,84.19
2018-09-03T13:12:18.147Z,84.19
2018-09-03T13:13:18.055Z,84.19
2018-09-03T13:14:17.826Z,85.15
2018-09-03T13:15:17.809Z,84.19
2018-09-03T13:16:17.694Z,84.47
2018-09-03T13:17:17.584Z,84.38
2018-09-03T13:18:17.501Z,83.99
2018-09-03T13:19:17.437Z,84.28
2018-09-03T13:20:17.383Z,84.38
2018-09-03T13:21:17.283Z,84.47
2018-09-03T13:22:17.207Z,84.19
2018-09-03T13:24:59.487Z,84.19
2018-09-03T13:27:41.531Z,84.67
2018-09-03T13:28:41.447Z,85.25
2018-09-03T13:31:05.979Z,84.19
2018-09-03T13:32:05.918Z,84.19
2018-09-03T13:33:05.816Z,84.52
2018-09-03T13:35:48.016Z,83.59
2018-09-03T13:36:47.907Z,83.01
2018-09-03T13:37:47.832Z,82.87
2018-09-03T13:40:30.323Z,83.16
2018-09-03T13:41:30.656Z,82.68
2018-09-03T13:42:29.956Z,82.81
2018-09-03T13:43:29.748Z,82.87
2018-09-03T13:44:29.669Z,82.58
2018-09-03T13:45:29.614Z,82.53
2018-09-03T13:46:29.560Z,82.66
2018-09-03T13:47:29.480Z,82.37
2018-09-03T13:48:29.374Z,82.37
2018-09-03T13:49:29.300Z,81.64
2018-09-03T13:50:29.277Z,81.12
2018-09-03T13:51:29.187Z,81.02
2018-09-03T13:52:29.069Z,81.60
2018-09-03T13:53:28.996Z,81.40
2018-09-03T13:54:28.907Z,81.35
2018-09-03T13:58:16.038Z,81.70
2018-09-03T13:59:15.916Z,82.28
2018-09-03T14:00:15.832Z,82.53
2018-09-03T14:02:58.011Z,84.08
2018-09-03T14:05:39.993Z,84.66
2018-09-03T14:06:39.906Z,84.66
2018-09-03T14:07:39.881Z,84.36
2018-09-03T14:08:39.765Z,84.27
2018-09-03T14:09:39.722Z,84.61
2018-09-03T14:10:39.751Z,84.32
2018-09-03T14:11:39.552Z,84.52
2018-09-03T14:12:39.500Z,84.32
2018-09-03T14:13:39.432Z,84.46
2018-09-03T14:14:39.314Z,84.75
2018-09-03T14:15:39.240Z,84.27
2018-09-03T14:16:39.156Z,83.88
2018-09-03T14:17:39.106Z,83.98
2018-09-03T14:18:39.009Z,83.40
2018-09-03T14:19:38.996Z,83.98
2018-09-03T14:20:38.860Z,83.88
2018-09-03T14:21:38.779Z,84.27
2018-09-03T14:24:21.004Z,84.17
2018-09-03T14:25:20.950Z,84.46
2018-09-03T14:26:20.834Z,83.98
2018-09-03T14:27:20.777Z,84.17
2018-09-03T14:28:20.745Z,84.56
2018-09-03T14:29:20.634Z,84.36
2018-09-03T14:30:20.595Z,84.56
2018-09-03T14:33:02.488Z,84.36
2018-09-03T14:34:02.432Z,85.14
2018-09-03T14:35:02.389Z,85.04
2018-09-03T14:36:02.336Z,85.62
2018-09-03T14:37:02.252Z,84.75
2018-09-03T14:38:02.130Z,85.04
2018-09-03T14:52:42.685Z,89.31
2018-09-03T14:53:42.608Z,89.01
2018-09-03T14:54:42.567Z,88.92
2018-09-03T14:55:42.448Z,88.73
2018-09-03T14:56:42.377Z,88.53
2018-09-03T14:59:24.514Z,89.21
2018-09-03T15:00:24.456Z,89.21
2018-09-03T15:01:24.385Z,89.40
2018-09-03T15:02:24.428Z,89.40
2018-09-03T15:03:24.201Z,88.73
2018-09-03T15:06:06.528Z,89.21
2018-09-03T15:08:48.525Z,88.53
2018-09-03T15:09:48.458Z,87.95
2018-09-03T15:10:48.383Z,88.43
2018-09-03T15:11:49.301Z,88.63
2018-09-03T15:12:48.199Z,88.63
2018-09-03T15:13:48.140Z,88.05
2018-09-03T15:14:48.109Z,88.63
2018-09-03T15:15:47.985Z,88.53
2018-09-03T15:16:47.940Z,88.92
2018-09-03T15:17:47.817Z,89.36
2018-09-03T15:18:47.740Z,89.45
2018-09-03T15:19:47.676Z,89.40
2018-09-03T15:20:47.589Z,89.79
2018-09-03T15:21:47.512Z,89.31
2018-09-03T15:22:47.457Z,89.31
2018-09-03T15:23:47.375Z,89.79
2018-09-03T15:24:47.277Z,89.55
2018-09-03T15:25:47.212Z,89.21
2018-09-03T15:26:47.139Z,89.79
2018-09-03T15:27:47.078Z,89.69
2018-09-03T15:28:46.975Z,89.59
2018-09-03T15:31:29.020Z,88.63
2018-09-03T15:32:28.978Z,88.57
2018-09-03T15:33:28.865Z,88.87
2018-09-03T15:34:28.785Z,87.61
2018-09-03T15:35:28.703Z,87.99
2018-09-03T15:38:11.040Z,87.95
2018-09-03T15:39:10.955Z,88.63
2018-09-03T15:40:10.879Z,88.53
2018-09-03T15:42:53.095Z,89.31
2018-09-03T15:43:52.970Z,89.79
2018-09-03T15:44:52.868Z,89.65
2018-09-03T15:45:52.810Z,89.26
2018-09-03T15:46:52.722Z,89.40
2018-09-03T15:47:52.692Z,89.01
2018-09-03T15:48:52.594Z,89.59
2018-09-03T15:52:32.606Z,89.98
2018-09-03T15:53:32.476Z,90.85
2018-09-03T15:54:32.379Z,90.08
2018-09-03T15:55:32.294Z,89.89
2018-09-03T15:56:32.226Z,89.98
2018-09-03T15:57:32.153Z,90.27
2018-09-03T15:58:32.112Z,90.37
2018-09-03T15:59:32.021Z,90.17
2018-09-03T16:00:31.922Z,90.08
2018-09-03T16:01:31.845Z,90.85
2018-09-03T16:02:31.772Z,90.08
2018-09-03T16:03:31.690Z,90.08
2018-09-03T16:04:31.641Z,90.08
2018-09-03T16:05:31.540Z,89.98
2018-09-03T16:06:31.460Z,90.08
2018-09-03T16:07:31.393Z,90.17
2018-09-03T16:08:31.337Z,90.75
2018-09-03T16:09:31.248Z,90.66
2018-09-03T16:11:31.074Z,91.43
2018-09-03T16:12:31.037Z,91.29
2018-09-03T16:13:30.926Z,91.43
2018-09-03T16:14:30.859Z,91.24
2018-09-03T16:15:30.785Z,91.19
2018-09-03T16:16:30.685Z,91.49
2018-09-03T16:17:30.605Z,91.49
2018-09-03T16:18:30.616Z,91.49
2018-09-03T16:19:30.485Z,91.09
2018-09-03T16:20:30.404Z,91.49
2018-09-03T16:21:30.308Z,91.39
2018-09-03T16:22:30.225Z,91.63
2018-09-03T16:23:30.153Z,91.53
2018-09-03T16:24:30.103Z,91.33
2018-09-03T16:25:29.998Z,91.43
2018-09-03T16:26:29.946Z,91.33
2018-09-03T16:27:29.934Z,91.09
2018-09-03T16:28:29.762Z,90.47
2018-09-03T16:29:29.722Z,91.33
2018-09-03T16:30:29.637Z,90.85
2018-09-03T16:31:29.521Z,91.33
2018-09-03T16:32:29.484Z,91.24
2018-09-03T16:33:29.559Z,91.53